Terminal Aerodrome Forecast
Issued by NWS

Home | Current Version | Previous Version | Text Only | Print | Product List | Glossary On
Versions: 1 2 3 4 5 6 7 8 9 10 11 12
260
FTAK31 PAJN 242330
TAFAKT
TAF
PAKT 242330Z 2500/2524 30008KT P6SM SKC
     FM250600 VRB05KT P6SM BKN035
     FM250900 18010KT P6SM VCSH BKN025 OVC035
     FM251300 14010KT 5SM -RASN OVC025
     FM252000 33010KT P6SM -RA BKN025 OVC035
      AMD LTD TO CLD VIS AND WIND 2506/2515=

USA.gov is the U.S. government's official web portal to all federal, state and local government web resources and services.